Trà Nóc Airport
VVCT : now visible

Airfield :











YOU CAN JOIN US ON...

 
LOGIN :

Register | Disclaimer

   EN    FR    IT 

 









Legend :    VFR   Marginal VFR   IFR   Intensive IFR   Very Intensive IFR
Visi :
Ceiling :
>= 8 km
>= 3000ft
5 to 8 km
1000 to 3000 ft
1500m to 5 km
500 to 1000 ft
800 to 1500m
200 to 500 ft
< 800m
< 200 ft
Symbols :   Thunderstorms  Fog  Heavy snow  Heavy precipitations  Wind > 20 kt






- Airport Elevation : 9 ft
- IATA code : VCA


VVCT - Trà Nóc

CURRENT METAR :
  • 170000Z VRB01KT 7000 FEW015 26/25 Q1012 NOSIG

EXPIRED METARs :
  • 162330Z 00000KT 6000 FEW015 24/24 Q1012 NOSIG
  • 162300Z 00000KT 8000 FEW015 24/24 Q1011 NOSIG
  • 162230Z VRB01KT 8000 FEW015 24/24 Q1011 NOSIG
  • 162200Z 00000KT 8000 FEW015 24/24 Q1011 NOSIG
  • 162130Z 30001KT 8000 FEW015 24/24 Q1011 NOSIG

TAF TAF VVCT
Valid from the 17 at 00:00 until the 18 at 00:00 UTC


162300Z 1700/1724 VRB03KT 9999 SCT015 SCT040
BECMG 1705/1706 10010KT
TEMPO 1707/1712 5000 TSRA SCT015 FEW017CB



MET'MAP, your aeronautical weather chart ! - Copyright ORBIFLY December 2007 - Disclaimer

ORBIFLY MET'MAP TEAM :

Programming & Development : Alexandra Zaïnal
Concept & Development : Baudouin d'Aumeries
Co-Development & Prog : Marc-Olivier Méhu
Technical & hardware support : Manuel Goepfert

Contact : metmap@orbifly.com




SOURCES & CREDITS :

   NOAA       Earth
Advisory